x

Neah Bay, - 6nm North Of Cape Flattery, Wa (traffic Separation Lighted Buoy) (46087) Wave Buoy

9:50 - Sun 23rd Apr 2017 All times are PDT. -7 hours from GMT.

  • Sig Wave height 9.2ft
  • Swell Direction
  • Peak Period 9s
  • Average Period 9s
  • Wind
    11mph, 16mph gusts
  • Sea Temp 52°f
  • Luft Temp 51°f
  • Sea Pressure 1010mb
  • Neah Bay, - 6nm North Of Cape Flattery, Wa     (traffic Separation Lighted Buoy)
  • Neah Bay, - 6nm North Of Cape Flattery, Wa     (traffic Separation Lighted Buoy)

More Historic Weather Station data

Upgrade to MSW Pro to gain access to the past 30 days of data for over 8000 Wavebouys and Weather Stations around the globe.

Join Pro

Comparision Forecast

View Surf forecast
   
So 04/23 9:50 9ft 9s 9s 11 16 mph 1010mb 52f 51f
9:20 8.5ft 11s 9s 11 13 mph 1010.1mb 52f 50f
8:50 8ft 13s 9s 11 13 mph 1010.4mb 52f 50f
8:20 7ft 11s 9s 11 13 mph 1010.6mb 52f 49f
7:50 7ft 11s 9s 13 16 mph 1010.7mb 52f 50f
7:20 6ft 12s 9s 13 16 mph 1011mb 52f 49f
6:50 7ft 11s 10s 11 13 mph 1011.1mb 52f 49f
6:20 6ft 13s 9s 11 13 mph 1011.3mb 52f 49f
5:50 7ft 12s 9s 11 13 mph 1011.5mb 52f 49f
5:20 6ft 11s 9s 9 11 mph 1011.7mb 52f 49f
4:50 5.5ft 11s 9s 7 9 mph 1011.9mb 52f 49f
4:20 6ft 12s 9s 7 9 mph 1012.1mb 52f 48f
3:50 6ft 12s 9s 9 11 mph 1012.4mb 52f 47f
3:20 7ft 13s 9s 9 13 mph 1012.7mb 52f 48f
2:50 7ft 14s 8s 4 9 mph 1012.8mb 52f 47f
2:20 7ft 12s 8s 11 13 mph 1013mb 52f 48f
1:50 7ft 13s 8s 11 13 mph 1013.1mb 52f 48f
1:20 7ft 12s 8s 11 18 mph 1012.9mb 52f 49f
12:50 8.5ft 13s 8s 11 16 mph 1012.8mb 52f 49f
12:20 7.5ft 12s 8s 11 13 mph 1012.8mb 52f 50f
Sa 04/22 11:50 8ft 12s 7s 11 16 mph 1012.7mb 52f 50f
11:20 8ft 13s 7s 13 16 mph 1012.6mb 52f 49f
10:50 10ft 12s 7s 18 25 mph 1012.5mb 52f 49f
10:20 9ft 12s 7s 18 22 mph 1012.3mb 52f 51f
9:50 8.5ft 12s 7s 20 27 mph 1011.9mb 52f 50f
9:20 9ft 12s 7s 20 25 mph 1011.6mb 52f 51f
8:50 9ft 13s 7s 20 25 mph 1011.2mb 52f 50f
8:20 8ft 14s 7s 22 25 mph 1010.9mb 52f 50f
7:50 8ft 13s 7s 22 27 mph 1010.8mb 52f 50f
7:20 7.5ft 12s 7s 25 29 mph 1010.5mb 52f 49f
6:50 7.5ft 12s 7s 25 29 mph 1010.3mb 52f 50f
6:20 7ft 11s 7s 22 29 mph 1010.2mb 52f 49f
5:20 7.5ft 12s 7s 25 31 mph 1009.7mb 52f 50f
4:50 6.5ft 12s 7s 25 34 mph 1009.3mb 52f 51f
4:20 8ft 12s 9s 27 31 mph 1009mb 52f 50f
3:50 8ft 12s 9s 20 27 mph 1008.8mb 52f 50f
3:20 8ft 12s 10s 18 20 mph 1008mb 52f 50f
2:50 8ft 12s 10s 16 22 mph 1007.5mb 52f 51f
2:20 8ft 12s 9s 13 18 mph 1007.4mb 52f 52f
1:50 7.5ft 12s 9s 16 20 mph 1007.5mb 52f 50f
1:20 9ft 12s 9s 18 22 mph 1007.7mb 52f 50f
12:50 7.5ft 12s 8s 11 13 mph 1008.3mb 52f 51f
12:20 7ft 11s 8s 18 20 mph 1008.4mb 52f 50f
11:50 6ft 12s 8s 11 13 mph 1008.4mb 52f 49f
11:20 5ft 12s 8s 20 25 mph 1008.1mb 52f 50f
10:50 4.5ft 12s 7s 13 20 mph 1008.2mb 52f 53f
10:20 4.5ft 12s 7s 16 20 mph 1007.9mb 52f 54f
9:50 4.5ft 13s 7s 20 27 mph 1007.3mb 52f 57f
9:20 4ft 13s 7s 11 16 mph 1006.9mb 52f 56f
8:50 3.5ft 14s 6s 16 20 mph 1006.4mb 52f 55f
8:20 3.5ft 14s 6s 18 22 mph 1006.1mb 52f 55f
7:50 3ft 14s 5s 16 20 mph 1006.2mb 52f 54f
7:20 2.5ft 14s 5s 18 20 mph 1006.3mb 52f 54f
6:50 2.5ft 13s 5s 18 20 mph 1006.4mb 52f 54f
6:20 2.5ft 14s 4s 16 18 mph 1006.9mb 52f 54f
5:20 2.5ft 4s 4s 18 22 mph 1008mb 52f 54f
4:50 2.5ft 4s 4s 18 20 mph 1008.3mb 52f 54f
4:20 2.5ft 4s 4s 20 22 mph 1008.5mb 52f 54f
3:50 2.5ft 9s 4s 20 22 mph 1009mb 52f 54f
3:20 2.5ft 9s 5s 18 20 mph 1009.7mb 52f 54f
2:50 2ft 9s 5s 18 20 mph 1010.5mb 52f 54f
2:20 2.5ft 9s 5s 18 20 mph 1011.2mb 52f 53f
1:50 2.5ft 9s 6s 18 20 mph 1011.8mb 52f 53f
1:20 2.5ft 10s 6s 18 20 mph 1012.2mb 52f 53f
12:50 2.5ft 9s 6s 16 18 mph 1012.8mb 52f 54f
12:20 2.5ft 10s 6s 18 20 mph 1013.1mb 52f 54f
Fr 04/21 11:50 2.5ft 8s 6s 13 18 mph 1013.4mb 52f 54f
11:20 3ft 8s 7s 16 18 mph 1014mb 52f 53f
10:50 3ft 10s 6s 13 16 mph 1014.7mb 52f 54f
10:20 3.5ft 9s 6s 16 18 mph 1015.1mb 52f 54f
9:50 3.5ft 8s 6s 18 20 mph 1015.6mb 52f 54f
9:20 3.5ft 8s 5s 18 20 mph 1016.3mb 52f 54f
8:50 4ft 9s 6s 18 20 mph 1016.7mb 52f 53f
8:20 4ft 11s 6s 16 18 mph 1017.3mb 53f 53f
7:50 4ft 11s 6s 16 18 mph 1017.7mb 53f 54f
7:20 4.5ft 10s 6s 16 18 mph 1018.2mb 53f 54f
6:50 4.5ft 10s 5s 16 18 mph 1018.6mb 53f 55f
6:20 4.5ft 10s 5s 20 25 mph 1018.7mb 53f 55f
5:20 5ft 11s 5s 22 29 mph 1019.6mb 53f 55f
4:50 4.5ft 10s 5s 25 31 mph 1020.1mb 53f 55f
4:20 5ft 11s 6s 22 27 mph 1020.8mb 53f 57f
3:50 5ft 10s 5s 22 27 mph 1021.3mb 53f 57f
3:20 5ft 11s 6s 22 27 mph 1022.1mb 53f 56f
2:50 4.5ft 11s 6s 22 27 mph 1022.9mb 53f 55f
2:20 5ft 10s 7s 20 25 mph 1023.5mb 52f 54f
1:50 5ft 11s 7s 20 25 mph 1024.1mb 52f 54f
1:20 4.5ft 10s 7s 18 22 mph 1024.7mb 52f 54f
12:50 4.5ft 11s 7s 16 18 mph 1025.2mb 52f 53f
12:20 5ft 10s 8s 16 18 mph 1025.8mb 52f 52f
11:50 5ft 10s 8s 16 18 mph 1026.3mb 52f 52f
11:20 5ft 11s 8s 13 18 mph 1026.8mb 52f 52f
10:50 5.5ft 9s 8s 11 13 mph 1027.2mb 52f 51f
10:20 5.5ft 10s 8s 9 11 mph 1027.9mb 52f 51f
9:50 6ft 10s 8s 9 11 mph 1028.1mb 52f 51f
9:20 6ft 11s 8s 11 16 mph 1028.5mb 51f 49f
8:50 6ft 10s 8s 16 18 mph 1028.5mb 51f 49f
8:20 5ft 10s 8s 16 20 mph 1028.5mb 51f 48f
7:50 5ft 11s 8s 11 16 mph 1028.8mb 51f 47f
7:20 5ft 10s 8s 13 16 mph 1028.7mb 51f 48f
6:20 5ft 11s 9s 9 11 mph 1028.8mb 51f 46f
5:50 4.5ft 11s 8s 9 11 mph 1028.9mb 51f 46f
5:20 4.5ft 11s 9s 7 9 mph 1029mb 51f 47f
4:50 5ft 11s 9s 7 9 mph 1029mb 51f 47f
4:20 4.5ft 11s 9s 7 9 mph 1029mb 51f 47f
3:50 5ft 11s 9s 9 11 mph 1029mb 51f 47f
3:20 4.5ft 11s 9s 9 11 mph 1029.2mb 51f 48f
2:50 5ft 11s 9s 7 9 mph 1029.3mb 51f 49f
2:20 5ft 11s 9s 7
mph
1029.5mb 52f 49f
1:50 5ft 10s 9s 7
mph
1029.4mb 52f 49f
1:20 5ft 12s 9s 9 11 mph 1029.2mb 52f 49f
12:50 5.5ft 12s 9s 2 4 mph 1029.1mb 52f 48f
12:20 5ft 11s 8s 4
mph
1029.2mb 52f 48f
Do 04/20 11:50 5ft 11s 9s 4 9 mph 1029.1mb 52f 49f
11:20 5ft 12s 8s 9 11 mph 1029mb 52f 48f
10:50 6ft 12s 9s 9 11 mph 1028.8mb 52f 51f
10:20 6ft 11s 8s 7 9 mph 1028.4mb 52f 51f
9:50 5.5ft 11s 8s 7 9 mph 1028.1mb 52f 51f
9:20 6ft 11s 9s 7 9 mph 1027.7mb 52f 51f
8:50 6.5ft 11s 8s 9 11 mph 1027.1mb 52f 51f
8:20 6.5ft 10s 8s 9
mph
1026.8mb 52f 51f
7:50 7ft 10s 9s 4 7 mph 1026.4mb 52f 51f
7:20 7ft 10s 9s 4 7 mph 1026.2mb 52f 51f
6:50 6.5ft 12s 8s 4 7 mph 1026.1mb 52f 51f
6:20 6.5ft 13s 9s 7 9 mph 1026mb 52f 52f
5:50 6.5ft 11s 9s 9 11 mph 1025.8mb 52f 52f
5:20 7.5ft 10s 9s 11 13 mph 1025.6mb 52f 53f
4:50 7ft 11s 8s 11 13 mph 1025.5mb 52f 54f
4:20 7ft 11s 8s 13 18 mph 1025.2mb 52f 54f
3:50 6.5ft 11s 8s 11 13 mph 1025mb 52f 53f
3:20 6.5ft 11s 8s 13 16 mph 1024.6mb 52f 52f
2:50 6ft 11s 8s 13 16 mph 1024.2mb 52f 54f
2:20 6.5ft 11s 8s 13 16 mph 1023.9mb 52f 53f
1:50 6ft 11s 8s 4 9 mph 1023.5mb 52f 52f
1:20 6ft 12s 8s 4 7 mph 1023.5mb 52f 53f
12:50 5.5ft 14s 8s 4 7 mph 1023.3mb 52f 52f
12:20 5.5ft 11s 8s 4 7 mph 1023mb 51f 51f
11:50 6ft 9s 8s 4 9 mph 1022.7mb 51f 51f
11:20 6ft 12s 8s 7 9 mph 1022.2mb 51f 51f
10:50 6ft 11s 8s 7 11 mph 1021.8mb 51f 49f
10:20 6ft 11s 8s 7 9 mph 1021.4mb 51f 50f
9:50 6ft 13s 8s 7 9 mph 1021.1mb 51f 47f
9:20 6ft 11s 8s 9 11 mph 1020.7mb 51f 48f
8:50 6.5ft 11s 8s 9 11 mph 1020.4mb 51f 47f
8:20 6ft 11s 8s 11 13 mph 1019.9mb 51f 48f
7:50 5.5ft 10s 8s 7 9 mph 1019.7mb 51f 47f
7:20 6ft 10s 8s 7 9 mph 1019.4mb 51f 47f
6:50 7ft 9s 8s 4 9 mph 1019.3mb 51f 46f
6:20 6ft 12s 8s 2 4 mph 1018.7mb 51f 45f
5:50 6ft 11s 7s 11 16 mph 1018.4mb 51f 46f
5:20 5.5ft 12s 8s 9 11 mph 1018.1mb 51f 49f
4:50 5.5ft 9s 8s 7 9 mph 1018mb 51f 50f
4:20 4.5ft 10s 8s 9 11 mph 1017.7mb 51f 50f
3:50 5ft 11s 8s 9 11 mph 1017.6mb 51f 50f
3:20 5ft 11s 8s 9 11 mph 1017.4mb 51f 51f
2:50 6ft 11s 8s 9 11 mph 1017.3mb 51f 51f
2:20 5ft 11s 8s 9 13 mph 1017.1mb 51f 51f
1:50 4.5ft 10s 8s 11 13 mph 1017mb 51f 51f
1:20 4.5ft 11s 8s 13 16 mph 1016.9mb 51f 51f
12:50 5ft 11s 8s 7 9 mph 1016.8mb 51f 49f
12:20 5ft 11s 8s 7 11 mph 1016.8mb 51f 49f
Mi 04/19 11:50 5ft 10s 8s 4 9 mph 1016.6mb 51f 48f
11:20 5ft 11s 8s 7 11 mph 1016.5mb 51f 47f
10:50 5ft 11s 8s 7 9 mph 1016.4mb 51f 47f
10:20 5ft 10s 8s 9 11 mph 1016.4mb 51f 47f
9:50 5.5ft 11s 8s 7 11 mph 1016.2mb 51f 47f
9:20 5ft 11s 7s 9 11 mph 1015.8mb 51f 47f
8:50 6ft 11s 7s 7 9 mph 1015.7mb 51f 47f
8:20 6ft 12s 7s 2 4 mph 1015.3mb 51f 47f
7:50 6.5ft 12s 7s 4 7 mph 1015.3mb 52f 47f
7:20 6.5ft 10s 7s 4 7 mph 1015.4mb 52f 47f
6:50 6.5ft 11s 6s 16 20 mph 1015mb 52f 48f
6:20 7ft 12s 7s 18 22 mph 1014.8mb 52f 51f